Time;durP1;ratioP1;P1;durP2;ratioP2;P2;SDS_P1;SDS_P2;PMS_P1;PMS_P2;Temp;Humidity;BMP_temperature;BMP_pressure;BME280_temperature;BME280_humidity;BME280_pressure;Samples;Min_cycle;Max_cycle;Signal;HPM_P1;HPM_P2
2023/10/21 00:00:54;;;;;;;12.13;5.40;;;;;;;11.63;100.00;98298.84;5032009;28;20051;-68
2023/10/21 00:03:20;;;;;;;12.52;5.47;;;;;;;11.60;100.00;98300.16;5031653;28;20032;-68
2023/10/21 00:05:45;;;;;;;12.10;5.95;;;;;;;11.60;100.00;98304.66;5022534;28;21767;-68
2023/10/21 00:08:10;;;;;;;15.15;5.30;;;;;;;11.57;100.00;98310.44;5028402;28;20092;-68
2023/10/21 00:10:36;;;;;;;9.93;5.85;;;;;;;11.55;100.00;98302.69;5027538;28;20271;-68
2023/10/21 00:13:01;;;;;;;11.00;6.28;;;;;;;11.53;100.00;98309.28;5026574;28;20037;-68
2023/10/21 00:15:26;;;;;;;11.10;6.28;;;;;;;11.51;100.00;98308.72;5027258;28;20025;-68
2023/10/21 00:17:52;;;;;;;11.52;6.15;;;;;;;11.46;100.00;98310.25;5035743;28;20072;-68
2023/10/21 00:20:17;;;;;;;17.05;6.80;;;;;;;11.47;100.00;98319.84;5018836;28;20021;-68
2023/10/21 00:22:43;;;;;;;12.90;7.50;;;;;;;11.43;100.00;98318.69;5022512;28;20044;-68
2023/10/21 00:25:08;;;;;;;16.20;7.47;;;;;;;11.39;100.00;98312.25;5035086;28;20368;-68
2023/10/21 00:27:33;;;;;;;16.55;7.10;;;;;;;11.40;100.00;98321.84;5029556;28;20275;-68
2023/10/21 00:29:58;;;;;;;14.75;7.63;;;;;;;11.39;100.00;98328.19;5032618;28;20055;-68
2023/10/21 00:32:24;;;;;;;13.40;7.10;;;;;;;11.37;100.00;98332.94;5026096;28;20064;-68
2023/10/21 00:34:49;;;;;;;14.40;7.00;;;;;;;11.34;100.00;98344.03;5031935;28;20021;-68
2023/10/21 00:37:14;;;;;;;14.30;6.88;;;;;;;11.36;100.00;98347.28;5028938;28;20037;-68
2023/10/21 00:39:40;;;;;;;14.57;7.65;;;;;;;11.35;100.00;98348.31;5030925;28;20022;-68
2023/10/21 00:42:06;;;;;;;13.63;7.18;;;;;;;11.34;100.00;98346.69;5023174;28;20018;-68
2023/10/21 00:44:32;;;;;;;12.20;6.85;;;;;;;11.34;100.00;98360.00;5019190;28;20017;-68
2023/10/21 00:46:59;;;;;;;12.05;6.78;;;;;;;11.33;100.00;98358.38;5024547;28;20017;-68
2023/10/21 00:49:25;;;;;;;11.45;6.45;;;;;;;11.34;100.00;98364.50;5027466;28;20681;-68
2023/10/21 00:51:51;;;;;;;12.55;6.63;;;;;;;11.29;100.00;98362.56;5028696;28;20057;-68
2023/10/21 00:54:17;;;;;;;10.73;6.10;;;;;;;11.31;100.00;98371.09;5023274;28;20049;-68
2023/10/21 00:56:42;;;;;;;10.60;6.38;;;;;;;11.32;100.00;98374.56;5031939;28;20094;-68
2023/10/21 00:59:10;;;;;;;10.57;6.25;;;;;;;11.31;100.00;98381.72;5020415;28;20079;-68
2023/10/21 01:01:35;;;;;;;11.77;6.57;;;;;;;11.30;100.00;98388.06;5030480;28;20108;-68
2023/10/21 01:04:02;;;;;;;19.30;7.00;;;;;;;11.29;100.00;98383.81;5026406;28;20112;-68
2023/10/21 01:06:27;;;;;;;9.55;5.85;;;;;;;11.29;100.00;98385.66;5018402;28;20021;-68
2023/10/21 01:08:52;;;;;;;13.82;6.47;;;;;;;11.30;100.00;98388.06;5021231;28;20399;-68
2023/10/21 01:11:18;;;;;;;12.07;5.75;;;;;;;11.22;100.00;98380.44;5019053;28;20106;-68
2023/10/21 01:13:44;;;;;;;12.18;5.95;;;;;;;11.29;100.00;98396.28;5026116;28;20034;-68
2023/10/21 01:16:09;;;;;;;10.07;6.05;;;;;;;11.28;100.00;98403.44;5018631;28;20041;-68
2023/10/21 01:18:35;;;;;;;12.82;6.00;;;;;;;11.28;100.00;98398.13;5025427;28;20052;-68
2023/10/21 01:21:02;;;;;;;10.65;5.80;;;;;;;11.27;100.00;98403.66;5023364;28;20390;-68
2023/10/21 01:23:28;;;;;;;10.52;6.20;;;;;;;11.26;100.00;98392.22;5022849;28;20028;-68
2023/10/21 01:25:54;;;;;;;10.50;5.90;;;;;;;11.27;100.00;98401.00;5031582;28;20317;-68
2023/10/21 01:28:19;;;;;;;8.65;6.22;;;;;;;11.28;100.00;98400.78;5018476;28;20753;-68
2023/10/21 01:30:45;;;;;;;8.02;5.55;;;;;;;11.28;100.00;98410.63;5020250;28;20030;-68
2023/10/21 01:33:10;;;;;;;12.40;5.60;;;;;;;11.26;100.00;98404.69;5021286;28;20029;-68
2023/10/21 01:35:35;;;;;;;11.75;5.90;;;;;;;11.33;100.00;98419.50;5033647;28;20104;-68
2023/10/21 01:38:00;;;;;;;15.77;5.95;;;;;;;11.35;100.00;98417.41;5023893;28;20060;-68
2023/10/21 01:40:27;;;;;;;9.75;6.13;;;;;;;11.38;100.00;98421.44;5025845;28;20067;-68
2023/10/21 01:42:52;;;;;;;11.57;5.93;;;;;;;11.39;100.00;98421.19;5020964;28;20025;-68
2023/10/21 01:45:18;;;;;;;10.05;5.95;;;;;;;11.41;100.00;98426.28;5014228;28;20048;-68
2023/10/21 01:47:43;;;;;;;11.30;6.22;;;;;;;11.42;100.00;98423.38;5023067;28;20614;-68
2023/10/21 01:50:09;;;;;;;13.10;5.82;;;;;;;11.46;100.00;98421.06;5015706;28;20024;-68
2023/10/21 01:52:36;;;;;;;11.13;6.28;;;;;;;11.45;100.00;98420.25;5020566;28;20049;-68
2023/10/21 01:55:03;;;;;;;10.27;6.53;;;;;;;11.48;100.00;98430.41;5020727;28;20029;-68
2023/10/21 01:57:29;;;;;;;12.80;6.32;;;;;;;11.49;100.00;98418.75;5020592;28;20065;-68
2023/10/21 01:59:54;;;;;;;9.70;6.10;;;;;;;11.54;100.00;98428.66;5017550;28;20076;-68
2023/10/21 02:02:20;;;;;;;10.45;6.03;;;;;;;11.54;100.00;98430.50;5020156;28;20025;-68
2023/10/21 02:04:45;;;;;;;8.98;6.03;;;;;;;11.57;100.00;98438.03;5023464;28;20029;-68
2023/10/21 02:07:10;;;;;;;12.90;6.65;;;;;;;11.57;100.00;98440.69;5018203;28;20088;-68
2023/10/21 02:09:36;;;;;;;13.48;5.95;;;;;;;11.57;100.00;98435.38;5017979;28;20041;-68
2023/10/21 02:12:02;;;;;;;9.90;6.05;;;;;;;11.56;100.00;98441.72;5020233;28;20100;-68
2023/10/21 02:14:27;;;;;;;15.05;6.00;;;;;;;11.55;100.00;98440.91;5025841;28;20991;-68
2023/10/21 02:16:54;;;;;;;9.38;5.53;;;;;;;11.59;100.00;98451.91;5022799;28;20578;-68
2023/10/21 02:19:20;;;;;;;10.70;5.72;;;;;;;11.61;100.00;98460.44;5023127;28;20136;-68
2023/10/21 02:21:46;;;;;;;9.70;5.57;;;;;;;11.60;100.00;98456.97;5018004;28;20434;-68
2023/10/21 02:24:11;;;;;;;9.77;5.72;;;;;;;11.61;100.00;98460.44;5020033;28;20025;-68
2023/10/21 02:26:36;;;;;;;7.90;5.63;;;;;;;11.62;100.00;98459.41;5018631;28;20021;-68
2023/10/21 02:29:03;;;;;;;10.43;5.97;;;;;;;11.63;100.00;98463.69;5022451;28;20393;-68
2023/10/21 02:31:28;;;;;;;10.63;5.68;;;;;;;11.62;100.00;98464.72;5020793;28;20061;-68
2023/10/21 02:33:54;;;;;;;9.40;6.35;;;;;;;11.63;100.00;98469.00;5016488;28;20543;-68
2023/10/21 02:36:19;;;;;;;11.20;5.57;;;;;;;11.59;100.00;98473.97;5022754;28;20029;-68
2023/10/21 02:38:45;;;;;;;9.90;5.70;;;;;;;11.61;100.00;98481.72;5020063;28;21659;-68
2023/10/21 02:41:10;;;;;;;12.20;5.40;;;;;;;11.61;100.00;98487.03;5015181;28;20059;-68
2023/10/21 02:43:35;;;;;;;10.48;6.07;;;;;;;11.60;100.00;98480.91;5019054;28;20038;-68
2023/10/21 02:46:11;;;;;;;11.32;5.95;;;;;;;11.58;100.00;98480.34;5021104;28;20036;-68
2023/10/21 02:48:37;;;;;;;12.88;5.57;;;;;;;11.62;100.00;98489.44;5020325;28;20471;-68
2023/10/21 02:51:13;;;;;;;11.07;5.43;;;;;;;11.62;100.00;98492.09;5017461;28;20063;-68
2023/10/21 02:53:42;;;;;;;13.75;5.60;;;;;;;11.63;100.00;98495.56;5020000;28;20035;-68
2023/10/21 02:56:09;;;;;;;8.90;5.60;;;;;;;11.61;100.00;98493.16;5016301;28;20556;-68
2023/10/21 02:58:35;;;;;;;9.00;5.28;;;;;;;11.58;100.00;98488.31;5025816;28;20108;-68
2023/10/21 03:01:15;;;;;;;9.45;5.10;;;;;;;11.66;100.00;98495.91;5023113;28;20486;-68
2023/10/21 03:03:41;;;;;;;9.52;5.50;;;;;;;11.65;100.00;98510.25;5027017;28;20449;-68
2023/10/21 03:06:08;;;;;;;10.95;5.43;;;;;;;11.65;100.00;98515.56;5023674;28;20032;-68
2023/10/21 03:08:34;;;;;;;11.85;5.30;;;;;;;11.65;100.00;98510.25;5018385;28;20491;-68
2023/10/21 03:11:02;;;;;;;11.65;5.32;;;;;;;11.65;100.00;98514.75;5021913;28;20034;-68
2023/10/21 03:13:27;;;;;;;11.50;5.15;;;;;;;11.68;100.00;98516.94;5015779;28;20059;-68
2023/10/21 03:15:52;;;;;;;13.80;5.40;;;;;;;11.69;100.00;98519.38;5023240;28;20071;-68
2023/10/21 03:18:18;;;;;;;14.20;4.70;;;;;;;11.70;100.00;98517.50;5013898;28;20511;-68
2023/10/21 03:20:43;;;;;;;12.70;5.22;;;;;;;11.68;100.00;98515.09;5017537;28;20030;-68
2023/10/21 03:23:10;;;;;;;12.57;5.75;;;;;;;11.71;100.00;98525.25;5016361;28;21461;-68
2023/10/21 03:25:35;;;;;;;12.68;4.93;;;;;;;11.71;100.00;98527.09;5025922;28;20068;-68
2023/10/21 03:28:00;;;;;;;15.43;5.30;;;;;;;11.71;100.00;98532.41;5022487;28;20060;-68
2023/10/21 03:30:28;;;;;;;13.82;5.30;;;;;;;11.71;100.00;98535.09;5013015;28;20172;-68
2023/10/21 03:32:53;;;;;;;9.38;5.07;;;;;;;11.67;100.00;98536.59;5020084;28;20497;-68
2023/10/21 03:35:19;;;;;;;8.32;4.93;;;;;;;11.56;100.00;98524.13;5020814;28;20017;-68
2023/10/21 03:37:44;;;;;;;12.48;5.22;;;;;;;11.61;100.00;98545.50;5021626;28;20070;-68
2023/10/21 03:40:10;;;;;;;12.85;5.22;;;;;;;11.64;100.00;98553.03;5017664;28;20026;-68
2023/10/21 03:42:37;;;;;;;12.55;5.35;;;;;;;11.59;100.00;98559.03;5023197;28;20035;-67
2023/10/21 03:45:04;;;;;;;8.85;5.50;;;;;;;11.57;100.00;98562.97;5020676;28;20496;-68
2023/10/21 03:47:29;;;;;;;10.68;4.93;;;;;;;11.58;100.00;98564.59;5021863;28;20491;-68
2023/10/21 03:49:55;;;;;;;11.75;5.20;;;;;;;11.57;100.00;98571.75;5016758;28;20033;-67
2023/10/21 03:52:20;;;;;;;12.77;5.45;;;;;;;11.57;100.00;98565.63;5025779;28;20030;-68
2023/10/21 03:54:45;;;;;;;12.55;5.68;;;;;;;11.56;100.00;98569.31;5011612;28;20105;-68
2023/10/21 03:57:10;;;;;;;14.80;5.47;;;;;;;11.53;100.00;98570.56;5026787;28;20434;-68
2023/10/21 03:59:36;;;;;;;14.85;5.65;;;;;;;11.52;100.00;98576.13;5016186;28;20028;-68
2023/10/21 04:02:01;;;;;;;11.95;5.35;;;;;;;11.52;100.00;98584.09;5015412;28;20021;-68
2023/10/21 04:04:26;;;;;;;11.73;5.53;;;;;;;11.51;100.00;98585.13;5028894;28;20105;-68
2023/10/21 04:06:51;;;;;;;14.60;6.18;;;;;;;11.48;100.00;98589.88;5026057;28;20033;-68
2023/10/21 04:09:17;;;;;;;14.50;5.68;;;;;;;11.48;100.00;98600.50;5016879;28;20026;-68
2023/10/21 04:11:42;;;;;;;11.75;5.38;;;;;;;11.47;100.00;98598.91;5010240;28;20037;-68
2023/10/21 04:14:08;;;;;;;13.43;4.97;;;;;;;11.47;100.00;98598.91;5023576;28;20026;-68
2023/10/21 04:16:33;;;;;;;14.82;5.50;;;;;;;11.48;100.00;98597.03;5022041;28;20022;-68
2023/10/21 04:18:58;;;;;;;11.02;5.60;;;;;;;11.43;100.00;98596.94;5022341;28;20033;-68
2023/10/21 04:21:25;;;;;;;11.73;5.30;;;;;;;11.48;100.00;98608.47;5019104;28;20104;-68
2023/10/21 04:23:51;;;;;;;11.32;5.20;;;;;;;11.51;100.00;98619.69;5028116;28;20120;-68
2023/10/21 04:26:16;;;;;;;8.60;5.10;;;;;;;11.53;100.00;98621.06;5030036;28;20402;-67
2023/10/21 04:28:42;;;;;;;10.48;4.70;;;;;;;11.55;100.00;98626.97;5017374;28;20072;-68
2023/10/21 04:31:07;;;;;;;10.68;4.75;;;;;;;11.53;100.00;98618.41;5020854;28;20068;-68
2023/10/21 04:33:32;;;;;;;9.23;5.05;;;;;;;11.60;100.00;98634.28;5030925;28;20040;-68
2023/10/21 04:35:57;;;;;;;14.07;5.00;;;;;;;11.61;100.00;98633.25;5023374;28;20032;-68
2023/10/21 04:38:23;;;;;;;9.93;4.70;;;;;;;11.63;100.00;98633.81;5042942;28;20040;-68
2023/10/21 04:40:48;;;;;;;14.43;4.93;;;;;;;11.64;100.00;98644.22;5029298;28;20025;-68
2023/10/21 04:43:14;;;;;;;11.60;5.18;;;;;;;11.67;100.00;98654.38;5031716;28;20022;-68
2023/10/21 04:45:40;;;;;;;10.77;4.90;;;;;;;11.70;100.00;98645.13;5024544;28;20077;-68
2023/10/21 04:48:05;;;;;;;13.95;5.47;;;;;;;11.72;100.00;98659.81;5042067;28;20072;-68
2023/10/21 04:50:31;;;;;;;11.85;5.07;;;;;;;11.72;100.00;98662.47;5029717;28;20668;-68
2023/10/21 04:52:56;;;;;;;9.68;4.93;;;;;;;11.73;100.00;98665.94;5031607;28;20411;-68
2023/10/21 04:55:21;;;;;;;13.25;5.13;;;;;;;11.73;100.00;98665.94;5023936;28;20075;-68
2023/10/21 04:57:46;;;;;;;10.77;5.15;;;;;;;11.73;100.00;98673.91;5026687;28;20391;-68
2023/10/21 05:00:14;;;;;;;12.77;5.10;;;;;;;11.71;100.00;98673.34;5020471;28;20482;-68
2023/10/21 05:02:40;;;;;;;10.88;5.13;;;;;;;11.73;100.00;98674.72;5027657;28;20025;-68
2023/10/21 05:05:05;;;;;;;14.88;5.47;;;;;;;11.73;100.00;98681.91;5022296;28;20030;-68
2023/10/21 05:07:31;;;;;;;10.95;5.20;;;;;;;11.70;100.00;98683.16;5018596;28;20026;-68
2023/10/21 05:09:57;;;;;;;13.07;4.90;;;;;;;11.73;100.00;98685.38;5016843;28;20048;-68
2023/10/21 05:12:22;;;;;;;17.55;5.60;;;;;;;11.74;100.00;98689.63;5022289;28;20032;-68
2023/10/21 05:14:48;;;;;;;20.08;5.07;;;;;;;11.72;100.00;98693.56;5021294;28;20025;-68
2023/10/21 05:17:13;;;;;;;10.32;5.13;;;;;;;11.73;100.00;98700.50;5022640;28;20442;-68
2023/10/21 05:19:39;;;;;;;11.93;5.45;;;;;;;11.74;100.00;98702.94;5022799;28;20109;-68
2023/10/21 05:22:04;;;;;;;10.93;4.97;;;;;;;11.75;100.00;98707.22;5026853;28;20101;-68
2023/10/21 05:24:29;;;;;;;13.38;5.30;;;;;;;11.74;100.00;98708.25;5024544;28;20407;-68
2023/10/21 05:26:55;;;;;;;10.93;5.43;;;;;;;11.77;100.00;98714.97;5013983;28;20036;-68
2023/10/21 05:29:20;;;;;;;10.23;4.82;;;;;;;11.77;100.00;98713.09;5016489;28;20026;-68
2023/10/21 05:31:45;;;;;;;15.60;5.38;;;;;;;11.81;100.00;98718.81;5022431;28;20024;-68
2023/10/21 05:34:17;;;;;;;11.07;5.38;;;;;;;11.83;100.00;98730.03;5016920;28;20025;-68
2023/10/21 05:36:43;;;;;;;10.30;5.25;;;;;;;11.84;100.00;98717.53;5023520;28;20029;-68
2023/10/21 05:39:08;;;;;;;19.95;5.40;;;;;;;11.83;100.00;98716.72;5024885;28;20038;-68
2023/10/21 05:41:33;;;;;;;15.85;5.10;;;;;;;11.86;100.00;98726.94;5033179;28;20028;-68
2023/10/21 05:43:58;;;;;;;15.00;5.63;;;;;;;11.88;100.00;98732.81;5039551;28;20025;-68
2023/10/21 05:46:24;;;;;;;9.68;4.70;;;;;;;11.85;100.00;98738.56;5032032;28;20025;-68
2023/10/21 05:48:49;;;;;;;14.88;4.63;;;;;;;11.88;100.00;98745.31;5030876;28;20383;-68
2023/10/21 05:51:14;;;;;;;13.50;5.15;;;;;;;11.76;100.00;98721.31;5015677;28;20042;-68
2023/10/21 05:53:40;;;;;;;14.40;5.07;;;;;;;11.88;100.00;98745.31;5023762;28;20025;-68
2023/10/21 05:56:05;;;;;;;14.23;4.85;;;;;;;11.88;100.00;98753.28;5031103;28;20031;-68
2023/10/21 05:58:31;;;;;;;10.13;4.95;;;;;;;11.89;100.00;98757.56;5013212;28;20018;-68
2023/10/21 06:00:56;;;;;;;14.90;4.68;;;;;;;11.87;100.00;98757.81;5026424;28;20498;-68
2023/10/21 06:03:21;;;;;;;12.25;5.05;;;;;;;11.91;100.00;98758.97;5020804;28;20065;-68
2023/10/21 06:05:47;;;;;;;11.88;4.82;;;;;;;11.94;100.00;98765.66;5016252;28;20029;-68
2023/10/21 06:08:12;;;;;;;10.40;4.70;;;;;;;11.90;100.00;98762.66;5012309;28;20034;-68
2023/10/21 06:10:38;;;;;;;14.50;4.70;;;;;;;11.90;100.00;98762.66;5015719;28;20152;-68
2023/10/21 06:13:05;;;;;;;12.15;4.70;;;;;;;11.98;100.00;98774.81;5017147;28;20022;-68
2023/10/21 06:15:30;;;;;;;14.63;5.05;;;;;;;12.01;100.00;98788.44;5028406;28;20033;-67
2023/10/21 06:17:56;;;;;;;11.65;5.00;;;;;;;12.05;100.00;98789.59;5020733;28;20550;-68
2023/10/21 06:20:21;;;;;;;12.27;5.32;;;;;;;12.04;100.00;98789.84;5014257;28;20017;-68
2023/10/21 06:22:47;;;;;;;11.18;5.00;;;;;;;12.09;100.00;98798.75;5016986;28;20057;-68
2023/10/21 06:25:14;;;;;;;12.70;5.32;;;;;;;12.10;100.00;98804.88;5021771;28;20041;-68
2023/10/21 06:27:39;;;;;;;12.00;5.15;;;;;;;12.09;100.00;98798.75;5017769;28;20026;-68
2023/10/21 06:30:05;;;;;;;9.30;4.88;;;;;;;12.16;100.00;98819.13;5010374;28;20033;-68
2023/10/21 06:32:30;;;;;;;11.18;5.28;;;;;;;12.18;100.00;98822.38;5008380;28;20021;-68
2023/10/21 06:34:56;;;;;;;11.35;5.35;;;;;;;12.18;100.00;98817.03;5019133;28;20531;-68
2023/10/21 06:37:21;;;;;;;9.32;5.03;;;;;;;12.21;100.00;98828.03;5020498;28;20053;-68
2023/10/21 06:39:47;;;;;;;11.02;4.63;;;;;;;12.24;100.00;98818.78;5014383;28;20507;-68
2023/10/21 06:42:13;;;;;;;13.38;5.28;;;;;;;12.26;100.00;98832.66;5013527;28;20018;-68
2023/10/21 06:44:38;;;;;;;10.60;4.95;;;;;;;12.29;100.00;98834.88;5009596;28;20360;-68
2023/10/21 06:47:04;;;;;;;10.35;4.57;;;;;;;12.31;100.00;98846.09;5008746;28;20025;-68
2023/10/21 06:49:29;;;;;;;10.13;4.75;;;;;;;12.32;100.00;98853.03;5011824;28;20045;-68
2023/10/21 06:51:55;;;;;;;14.05;4.70;;;;;;;12.32;100.00;98853.03;5021817;28;20606;-68
2023/10/21 06:54:21;;;;;;;11.38;4.05;;;;;;;12.35;100.00;98852.56;5010088;28;20010;-68
2023/10/21 06:56:46;;;;;;;10.15;4.22;;;;;;;12.32;100.00;98850.38;5018232;28;20033;-68
2023/10/21 06:59:15;;;;;;;11.80;3.85;;;;;;;12.36;100.00;98856.84;5014007;28;20025;-68
2023/10/21 07:01:40;;;;;;;11.90;3.70;;;;;;;12.39;100.00;98867.03;5010655;28;20052;-68
2023/10/21 07:04:07;;;;;;;7.15;3.90;;;;;;;12.36;100.00;98856.84;5009811;28;20811;-68
2023/10/21 07:06:32;;;;;;;9.77;3.60;;;;;;;12.40;100.00;98866.00;5032067;28;20511;-68
2023/10/21 07:08:58;;;;;;;8.65;4.30;;;;;;;12.43;100.00;98873.50;5012412;28;20033;-69
2023/10/21 07:11:24;;;;;;;10.90;3.90;;;;;;;12.47;100.00;98889.84;5017409;28;20059;-68
2023/10/21 07:13:49;;;;;;;8.65;3.50;;;;;;;12.50;100.00;98886.72;5028797;28;20112;-69
2023/10/21 07:16:14;;;;;;;13.35;4.20;;;;;;;12.51;100.00;98883.84;5016754;28;20026;-68
2023/10/21 07:18:40;;;;;;;10.60;3.72;;;;;;;12.50;100.00;98890.19;5021207;28;20018;-68
2023/10/21 07:21:08;;;;;;;11.70;4.05;;;;;;;12.53;100.00;98895.06;5009772;28;20014;-68
2023/10/21 07:23:33;;;;;;;10.52;4.07;;;;;;;12.58;100.00;98913.81;5010146;28;20056;-69
2023/10/21 07:25:59;;;;;;;7.97;3.25;;;;;;;12.60;100.00;98916.25;5008947;28;20026;-68
2023/10/21 07:28:25;;;;;;;9.02;3.50;;;;;;;12.61;100.00;98923.19;5017613;28;20026;-68
2023/10/21 07:30:52;;;;;;;5.53;3.38;;;;;;;12.62;100.00;98930.13;5014035;28;20017;-69
2023/10/21 07:33:17;;;;;;;7.07;3.97;;;;;;;12.62;100.00;98938.94;5010642;28;20024;-69
2023/10/21 07:35:42;;;;;;;7.28;3.72;;;;;;;12.62;100.00;98949.59;5013151;28;20025;-69
2023/10/21 07:38:08;;;;;;;7.13;3.90;;;;;;;12.61;100.00;98944.50;5009165;28;20488;-69
2023/10/21 07:40:33;;;;;;;6.18;4.22;;;;;;;12.65;100.00;98974.94;5011704;28;20026;-69
2023/10/21 07:42:58;;;;;;;3.83;2.95;;;;;;;12.51;100.00;98962.91;5024731;28;20022;-68
2023/10/21 07:45:24;;;;;;;3.40;2.00;;;;;;;12.43;100.00;98980.00;5014004;28;20026;-68
2023/10/21 07:47:49;;;;;;;3.42;1.23;;;;;;;12.38;100.00;98991.34;5015700;28;20025;-69
2023/10/21 07:50:16;;;;;;;3.10;1.30;;;;;;;12.36;100.00;99009.38;5009953;28;20061;-69
2023/10/21 07:52:43;;;;;;;3.97;1.40;;;;;;;12.37;100.00;99011.00;5019722;28;20028;-69
2023/10/21 07:55:11;;;;;;;3.70;1.20;;;;;;;12.38;100.00;99009.97;5029681;28;20037;-69
2023/10/21 07:57:38;;;;;;;2.08;0.98;;;;;;;12.41;100.00;99022.00;5034628;28;20609;-69
2023/10/21 08:00:04;;;;;;;1.70;0.90;;;;;;;12.43;100.00;99022.59;5015754;28;20072;-69
2023/10/21 08:02:30;;;;;;;2.42;1.02;;;;;;;12.43;100.00;99030.56;5012354;28;20026;-69
2023/10/21 08:04:55;;;;;;;2.17;0.90;;;;;;;12.48;100.00;99028.06;5013278;28;20034;-69
2023/10/21 08:07:21;;;;;;;2.15;0.80;;;;;;;12.49;100.00;99026.22;5016128;28;20025;-69
2023/10/21 08:09:47;;;;;;;3.65;0.90;;;;;;;12.51;100.00;99048.09;5026270;28;20501;-69
2023/10/21 08:12:12;;;;;;;3.05;0.90;;;;;;;12.50;100.00;99054.47;5030343;28;20051;-69
2023/10/21 08:14:40;;;;;;;3.50;1.00;;;;;;;12.48;100.00;99067.19;5015969;28;20020;-69
2023/10/21 08:17:05;;;;;;;0.80;0.80;;;;;;;12.44;100.00;99072.16;5013025;28;20029;-69
2023/10/21 08:19:31;;;;;;;3.70;1.10;;;;;;;12.42;100.00;99074.22;5018967;28;20029;-68
2023/10/21 08:21:57;;;;;;;2.85;1.20;;;;;;;12.43;100.00;99091.81;5033992;28;20634;-69
2023/10/21 08:24:23;;;;;;;3.80;1.05;;;;;;;12.42;100.00;99076.88;5027371;28;20758;-69
2023/10/21 08:26:48;;;;;;;4.53;1.20;;;;;;;12.44;100.00;99080.16;5017701;28;20026;-69
2023/10/21 08:29:14;;;;;;;2.42;0.85;;;;;;;12.49;100.00;99088.28;5014896;28;20025;-69
2023/10/21 08:31:40;;;;;;;2.97;1.13;;;;;;;12.56;100.00;99081.00;5019729;28;20124;-68
2023/10/21 08:34:09;;;;;;;2.65;0.90;;;;;;;12.67;100.00;99080.22;5018264;28;20079;-68
2023/10/21 08:36:35;;;;;;;2.80;1.02;;;;;;;12.76;100.00;99077.25;5034865;28;20021;-68
2023/10/21 08:39:01;;;;;;;1.40;0.93;;;;;;;12.84;100.00;99079.56;5019662;28;20024;-69
2023/10/21 08:41:33;;;;;;;2.38;1.00;;;;;;;12.88;100.00;99086.06;5024401;28;20025;-68
2023/10/21 08:43:58;;;;;;;2.83;0.90;;;;;;;12.87;100.00;99092.44;5031052;28;20094;-69
2023/10/21 08:46:25;;;;;;;2.03;0.90;;;;;;;12.91;100.00;99090.94;5020632;28;20018;-68
2023/10/21 08:48:52;;;;;;;2.15;0.90;;;;;;;12.93;100.00;99099.50;5017323;28;20026;-69
2023/10/21 08:51:20;;;;;;;7.82;1.60;;;;;;;12.97;100.00;99103.34;5014746;28;20033;-70
2023/10/21 08:53:49;;;;;;;3.33;0.90;;;;;;;12.93;100.00;99100.31;5021614;28;20050;-69
2023/10/21 08:56:15;;;;;;;3.35;0.90;;;;;;;13.02;100.00;99111.47;5023068;28;20028;-68
2023/10/21 08:58:41;;;;;;;1.10;0.70;;;;;;;13.03;100.00;99118.44;5018411;28;20030;-69
2023/10/21 09:01:07;;;;;;;2.88;0.70;;;;;;;13.04;100.00;99109.41;5028062;28;20021;-68
2023/10/21 09:03:32;;;;;;;2.28;0.90;;;;;;;13.07;100.00;99122.25;5012888;28;20401;-68
2023/10/21 09:06:19;;;;;;;1.20;0.88;;;;;;;13.16;100.00;99126.22;5030770;28;20036;-68
2023/10/21 09:08:47;;;;;;;3.30;0.85;;;;;;;13.15;100.00;99132.56;5027243;28;20064;-69
2023/10/21 09:11:15;;;;;;;2.03;0.80;;;;;;;13.17;100.00;99130.53;5014785;28;20523;-68
2023/10/21 09:13:41;;;;;;;3.45;0.80;;;;;;;13.13;100.00;99123.19;5012905;28;20026;-68
2023/10/21 09:16:19;;;;;;;3.35;0.88;;;;;;;13.25;100.00;99124.84;5021432;28;20115;-69
2023/10/21 09:19:00;;;;;;;2.13;0.70;;;;;;;13.26;98.50;99129.13;5023950;28;20061;-69
2023/10/21 09:21:41;;;;;;;2.55;1.10;;;;;;;13.27;97.71;99137.94;5018572;28;20030;-68
2023/10/21 09:24:09;;;;;;;1.83;0.90;;;;;;;13.26;96.64;99134.47;5020287;28;20045;-68
2023/10/21 09:26:36;;;;;;;2.83;0.80;;;;;;;13.28;97.49;99143.06;5019277;28;20037;-68
2023/10/21 09:29:11;;;;;;;2.75;0.80;;;;;;;13.29;97.77;99142.00;5017767;28;20146;-68
2023/10/21 09:31:56;;;;;;;2.22;0.80;;;;;;;13.33;97.49;99147.72;5013873;28;20406;-69
2023/10/21 09:34:30;;;;;;;4.68;0.95;;;;;;;13.35;96.96;99158.16;5015617;28;20038;-69
2023/10/21 09:36:57;;;;;;;4.35;1.02;;;;;;;13.37;96.38;99150.75;5020794;28;20040;-68
2023/10/21 09:39:24;;;;;;;1.92;0.80;;;;;;;13.38;95.68;99165.69;5013042;28;20079;-68
2023/10/21 09:41:50;;;;;;;2.45;1.00;;;;;;;13.38;94.48;99157.69;5015614;28;20033;-69
2023/10/21 09:44:16;;;;;;;4.28;0.90;;;;;;;13.43;94.12;99155.94;5023844;28;20022;-69
2023/10/21 09:46:46;;;;;;;3.75;1.13;;;;;;;13.50;93.98;99145.97;5019497;28;20057;-69
2023/10/21 09:49:13;;;;;;;2.38;0.90;;;;;;;13.56;93.28;99160.25;5020870;28;20082;-69
2023/10/21 09:51:46;;;;;;;4.63;1.00;;;;;;;13.62;93.66;99170.81;5024868;28;20036;-69
2023/10/21 09:54:14;;;;;;;3.63;1.17;;;;;;;13.63;93.47;99172.44;5016725;28;20091;-69
2023/10/21 09:56:42;;;;;;;3.70;0.85;;;;;;;13.62;92.75;99178.81;5014881;28;20036;-69
2023/10/21 09:59:09;;;;;;;4.43;1.20;;;;;;;13.66;92.25;99181.03;5015653;28;20059;-69
2023/10/21 10:01:39;;;;;;;4.53;0.98;;;;;;;13.69;92.31;99186.72;5015034;28;20060;-69
2023/10/21 10:04:09;;;;;;;2.28;0.90;;;;;;;13.73;91.51;99192.41;5020113;28;20628;-69
2023/10/21 10:06:37;;;;;;;4.28;0.90;;;;;;;13.79;91.67;99189.59;5015460;28;20427;-69
2023/10/21 10:09:06;;;;;;;2.00;0.80;;;;;;;13.82;90.32;99202.47;5027996;28;20025;-68
2023/10/21 10:11:32;;;;;;;6.22;0.90;;;;;;;13.74;89.90;99200.16;5020392;28;20055;-69
2023/10/21 10:13:57;;;;;;;3.42;1.30;;;;;;;13.84;89.77;99204.91;5018894;28;20148;-68
2023/10/21 10:16:25;;;;;;;4.22;1.20;;;;;;;13.83;89.53;99222.78;5020496;28;23256;-68
2023/10/21 10:18:51;;;;;;;4.28;0.80;;;;;;;13.85;88.47;99207.34;5022148;28;20548;-69
2023/10/21 10:21:18;;;;;;;4.13;0.90;;;;;;;13.87;87.58;99218.59;5016899;28;20021;-69
2023/10/21 10:23:51;;;;;;;5.35;1.30;;;;;;;13.87;87.12;99215.94;5015880;28;20641;-69
2023/10/21 10:26:33;;;;;;;4.82;1.00;;;;;;;13.91;86.04;99227.00;5018342;28;20034;-69
2023/10/21 10:28:59;;;;;;;4.10;1.20;;;;;;;13.94;85.73;99226.53;5019946;28;20387;-68
2023/10/21 10:31:26;;;;;;;5.18;1.42;;;;;;;13.97;85.79;99234.06;5019424;28;20748;-69
2023/10/21 10:33:51;;;;;;;4.47;1.10;;;;;;;13.98;84.69;99222.34;5017155;28;20033;-68
2023/10/21 10:36:27;;;;;;;3.15;0.80;;;;;;;14.04;84.93;99232.06;5015533;28;20508;-69
2023/10/21 10:38:54;;;;;;;4.03;1.10;;;;;;;14.10;84.96;99227.66;5018026;28;20025;-68
2023/10/21 10:41:21;;;;;;;4.45;1.20;;;;;;;14.15;83.75;99231.25;5017080;28;20022;-68
2023/10/21 10:43:55;;;;;;;4.53;1.08;;;;;;;14.14;83.21;99236.81;5015096;28;20038;-68
2023/10/21 10:46:23;;;;;;;5.55;1.08;;;;;;;14.29;82.91;99250.53;5015580;28;20033;-68
2023/10/21 10:48:49;;;;;;;4.90;1.23;;;;;;;14.33;82.72;99249.00;5015173;28;20025;-69
2023/10/21 10:51:19;;;;;;;8.05;1.50;;;;;;;14.43;82.24;99249.25;5022571;28;20056;-69
2023/10/21 10:54:05;;;;;;;3.78;1.00;;;;;;;14.55;81.66;99258.09;5026973;28;20401;-69
2023/10/21 10:56:40;;;;;;;6.93;1.33;;;;;;;14.64;81.79;99263.06;5020360;28;20494;-69
2023/10/21 10:59:05;;;;;;;5.95;1.33;;;;;;;14.68;81.66;99258.84;5014005;28;20064;-69
2023/10/21 11:01:31;;;;;;;6.32;1.38;;;;;;;14.64;80.83;99249.69;5014756;28;20033;-69
2023/10/21 11:03:58;;;;;;;5.00;1.20;;;;;;;14.75;80.69;99257.69;5024949;28;20629;-69
2023/10/21 11:06:30;;;;;;;4.63;1.13;;;;;;;14.71;80.42;99255.72;5014208;28;20035;-69
2023/10/21 11:08:57;;;;;;;3.53;1.00;;;;;;;14.74;80.11;99264.06;5014921;28;20494;-69
2023/10/21 11:11:22;;;;;;;4.68;1.20;;;;;;;14.75;80.23;99268.38;5012279;28;20217;-69
2023/10/21 11:13:48;;;;;;;7.15;1.30;;;;;;;14.78;79.98;99264.44;5025965;28;20144;-69
2023/10/21 11:16:15;;;;;;;4.00;1.35;;;;;;;14.73;79.48;99261.63;5027587;28;20033;-69
2023/10/21 11:18:41;;;;;;;5.93;1.20;;;;;;;14.76;78.97;99269.19;5021847;28;20534;-69